Cornfields, Arizona
Current Conditions -  °F | °C
As of 9:53 PM on Friday 24 Oct 2014 (Local Time) from KRQE Reporting Station
Clear Clear  
Wind Chill: 48°   Ceiling: Unl
Heat Index: 48°   Visibility: 10mi
Dew Point: 29°   Wind: 0mph
Humidity: 48%   Direction: NA
Pressure: 30.37"   Gusts: NA
Location:  35.6053°N, 109.458°W
Report Text: KRQE 250353Z AUTO 00000KT 10SM CLR 09/M02 A3037 RMK AO2 SLP218 T00891017 TSNO
Loading
Personal Weather Stations






























Interactive Weather Map
Tropical Storm Tracking
New forecast layout! Learn more

10-Day Weather Forecast

Advertisements
Track Severe Weather on mobile